Koosah.INFO

KSEA Weather Observatons

This table shows observations taken by aircraft in the Seattle, WA, US area since 2019-05-19T10:19:22-0700. By default, it is sorted by time observed in ascending order. Click on a column heading to sort by that column instead. Click again on the same column heading to sort in descending order.

Show observations taken in the last:

Return to main page.

Time Observed Time Received Altitude (ft) Latitude Longitude Temperature (˚C) Wind Direction Wind speed (kn) Frequency (MHz) Source
2019-05-19T11:51:00-0700 2019-05-19T11:57:48-0700 7216 47.1169 -122.0809 0.5 111 20 130.025 .N319AS
2019-05-19T12:05:00-0700 2019-05-19T12:12:19-0700 35513 48.7568 -123.5167 -60.7 120 44 130.025 .N549AS
2019-05-19T12:05:00-0700 2019-05-19T12:06:56-0700 4480 47.5797 -122.308 7.2 106 10 130.025 .N307AS
2019-05-19T12:05:00-0700 2019-05-19T12:06:49-0700 3202 47.5356 -122.3101 9.7 176 3 130.025 .N307AS
2019-05-19T12:04:00-0700 2019-05-19T12:10:45-0700 33052 48.6955 -123.4556 -55.0 (missing) (missing) 130.025 .N306AS
2019-05-19T12:04:00-0700 2019-05-19T12:06:49-0700 2806 47.5153 -122.3102 9.2 137 0 130.025 .N307AS
2019-05-19T12:04:00-0700 2019-05-19T12:05:16-0700 2007 47.4932 -122.3094 11.0 130 2 130.025 .N307AS
2019-05-19T12:04:00-0700 2019-05-19T12:05:16-0700 1770 47.4877 -122.3092 11.2 222 2 130.025 .N307AS
2019-05-19T12:04:00-0700 2019-05-19T12:05:16-0700 1654 47.4822 -122.309 11.5 227 0 130.025 .N307AS
2019-05-19T12:02:00-0700 2019-05-19T12:10:45-0700 35000 48.8666 -123.6573 -60.5 123 41 130.025 .N306AS
2019-05-19T12:00:00-0700 2019-05-19T12:10:45-0700 34999 49.0438 -123.8782 -60.5 128 41 130.025 .N306AS
2019-05-19T11:53:00-0700 2019-05-19T11:57:48-0700 4739 47.1667 -122.257 5.0 98 19 130.025 .N319AS
2019-05-19T11:52:00-0700 2019-05-19T11:57:48-0700 6016 47.1311 -122.1789 2.5 95 17 130.025 .N319AS
2019-05-19T12:06:00-0700 2019-05-19T12:06:56-0700 5235 47.5991 -122.2891 5.5 127 12 130.025 .N307AS
2019-05-19T11:05:00-0700 2019-05-19T11:06:01-0700 14656 47.3608 -122.1365 -12.7 93 18 130.025 .N556AS
2019-05-19T11:05:00-0700 2019-05-19T11:06:01-0700 13692 47.3938 -122.1432 -11.0 92 15 130.025 .N556AS
2019-05-19T11:05:00-0700 2019-05-19T11:06:01-0700 12994 47.4262 -122.1497 -10.0 106 12 130.025 .N556AS
2019-05-19T11:04:00-0700 2019-05-19T11:05:55-0700 11531 47.4882 -122.1619 -7.5 118 18 130.025 .N556AS
2019-05-19T11:04:00-0700 2019-05-19T11:05:55-0700 10965 47.5179 -122.1678 -6.5 123 20 130.025 .N556AS
2019-05-19T11:02:00-0700 2019-05-19T11:03:40-0700 6891 47.614 -122.261 1.5 125 15 130.025 .N556AS
2019-05-19T11:01:00-0700 2019-05-19T11:01:34-0700 17663 47.6583 -122.9294 -19.7 106 23 130.025 .N546AS
2019-05-19T11:01:00-0700 2019-05-19T11:03:40-0700 6012 47.6035 -122.2927 2.7 122 12 130.025 .N556AS
2019-05-19T11:01:00-0700 2019-05-19T11:03:40-0700 5178 47.5828 -122.3092 4.7 101 11 130.025 .N556AS
2019-05-19T11:00:00-0700 2019-05-19T11:02:03-0700 20318 47.1684 -122.0773 -24.0 (missing) (missing) 130.025 .N611AS
2019-05-19T11:00:00-0700 2019-05-19T11:02:03-0700 19474 47.2034 -122.083 -23.2 119 15 130.025 .N611AS
2019-05-19T12:12:00-0700 2019-05-19T12:13:31-0700 16265 47.5603 -121.6074 -16.0 127 13 130.025 .N307AS
2019-05-19T12:17:00-0700 2019-05-19T12:18:32-0700 27048 47.5471 -120.7914 -39.2 130 22 130.025 .N307AS
2019-05-19T12:16:00-0700 2019-05-19T12:18:32-0700 26275 47.5481 -120.8478 -37.2 132 20 130.025 .N307AS
2019-05-19T12:16:00-0700 2019-05-19T12:16:38-0700 8100 47.373 -122.122 0.0 141 12 130.025 .N593NW
2019-05-19T12:15:00-0700 2019-05-19T12:16:38-0700 6600 47.374 -122.16 3.0 138 15 130.025 .N593NW
2019-05-19T12:15:00-0700 2019-05-19T12:16:38-0700 5200 47.355 -122.184 6.0 100 13 130.025 .N593NW
2019-05-19T12:14:00-0700 2019-05-19T12:16:38-0700 3600 47.324 -122.185 9.0 160 6 130.025 .N593NW
2019-05-19T12:13:00-0700 2019-05-19T12:15:15-0700 20295 47.5567 -121.3414 -24.5 170 14 130.025 .N307AS
2019-05-19T12:13:00-0700 2019-05-19T12:15:15-0700 19657 47.5574 -121.3948 -23.0 158 14 130.025 .N307AS
2019-05-19T12:13:00-0700 2019-05-19T12:13:37-0700 19548 47.5575 -121.4027 -23.2 142 14 130.025 .N307AS
2019-05-19T12:13:00-0700 2019-05-19T12:13:37-0700 18745 47.5582 -121.4548 -21.5 140 16 130.025 .N307AS
2019-05-19T12:13:00-0700 2019-05-19T12:16:38-0700 2100 47.291 -122.184 11.0 127 1 130.025 .N593NW
2019-05-19T12:12:00-0700 2019-05-19T12:13:37-0700 17978 47.5589 -121.5063 -20.0 143 13 130.025 .N307AS
2019-05-19T11:00:00-0700 2019-05-19T11:02:03-0700 18596 47.2376 -122.0888 -21.7 108 17 130.025 .N611AS
2019-05-19T12:12:00-0700 2019-05-19T12:16:38-0700 600 47.268 -122.184 15.0 358 3 130.025 .N593NW
2019-05-19T12:11:00-0700 2019-05-19T12:12:14-0700 21182 48.1012 -122.9067 -27.5 113 15 130.025 .N306AS
2019-05-19T12:11:00-0700 2019-05-19T12:13:31-0700 15317 47.561 -121.6572 -14.0 121 11 130.025 .N307AS
2019-05-19T12:10:00-0700 2019-05-19T12:12:14-0700 22994 48.1819 -122.9806 -31.2 134 18 130.025 .N306AS
2019-05-19T12:09:00-0700 2019-05-19T12:12:14-0700 24792 48.2632 -123.0546 -35.0 130 13 130.025 .N306AS
2019-05-19T12:08:00-0700 2019-05-19T12:08:41-0700 8853 47.5956 -122.079 -1.5 120 12 130.025 .N307AS
2019-05-19T12:08:00-0700 2019-05-19T12:08:41-0700 8717 47.5989 -122.1156 -1.2 118 12 130.025 .N307AS
2019-05-19T12:07:00-0700 2019-05-19T12:12:19-0700 32280 48.5818 -123.3489 -54.0 130 39 130.025 .N549AS
2019-05-19T12:07:00-0700 2019-05-19T12:08:41-0700 8580 47.6029 -122.152 -1.2 120 11 130.025 .N307AS
2019-05-19T12:06:00-0700 2019-05-19T12:12:19-0700 34172 48.6685 -123.4298 -58.7 121 41 130.025 .N549AS
2019-05-19T12:06:00-0700 2019-05-19T12:06:56-0700 6250 47.6059 -122.2568 3.2 105 7 130.025 .N307AS
2019-05-19T10:42:00-0700 2019-05-19T10:42:59-0700 10732 47.5465 -122.1435 -6.5 120 18 130.025 .N548AS
2019-05-19T10:53:00-0700 2019-05-19T10:55:22-0700 4177 47.533 -122.3097 6.7 138 6 130.025 .N611AS
2019-05-19T10:53:00-0700 2019-05-19T10:54:02-0700 3774 47.522 -122.3092 7.5 137 8 130.025 .N611AS
2019-05-19T10:53:00-0700 2019-05-19T10:54:02-0700 3583 47.5162 -122.3089 8.0 134 6 130.025 .N611AS
2019-05-19T10:53:00-0700 2019-05-19T10:55:22-0700 3492 47.5132 -122.3089 8.0 142 5 130.025 .N611AS
2019-05-19T10:53:00-0700 2019-05-19T10:54:02-0700 3404 47.5103 -122.3087 7.7 139 3 130.025 .N611AS
2019-05-19T10:52:00-0700 2019-05-19T10:53:31-0700 2199 47.477 -122.307 9.0 (missing) (missing) 130.025 .N611AS
2019-05-19T10:52:00-0700 2019-05-19T10:53:31-0700 2008 47.4726 -122.307 10.0 251 1 130.025 .N611AS
2019-05-19T10:52:00-0700 2019-05-19T10:53:31-0700 1788 47.4681 -122.3071 10.7 168 0 130.025 .N611AS
2019-05-19T10:44:00-0700 2019-05-19T10:44:43-0700 15396 47.3725 -122.0816 -14.5 92 22 130.025 .N548AS
2019-05-19T10:44:00-0700 2019-05-19T10:44:43-0700 14632 47.4041 -122.0857 -13.2 91 15 130.025 .N548AS
2019-05-19T10:43:00-0700 2019-05-19T10:44:43-0700 13710 47.4348 -122.0905 -10.7 102 14 130.025 .N548AS
2019-05-19T10:42:00-0700 2019-05-19T10:42:59-0700 11223 47.5256 -122.1168 -7.0 132 18 130.025 .N548AS
2019-05-19T10:54:00-0700 2019-05-19T10:55:18-0700 1122 47.4576 -122.3077 12.2 90 0 130.025 .N546AS
2019-05-19T10:42:00-0700 2019-05-19T10:42:59-0700 10282 47.5656 -122.1693 -5.0 119 17 130.025 .N548AS
2019-05-19T10:40:00-0700 2019-05-19T10:41:19-0700 7413 47.6144 -122.2548 0.7 130 18 130.025 .N548AS
2019-05-19T10:40:00-0700 2019-05-19T10:41:19-0700 6457 47.6083 -122.2886 2.2 130 20 130.025 .N548AS
2019-05-19T10:40:00-0700 2019-05-19T10:41:19-0700 5614 47.5884 -122.3077 4.0 115 17 130.025 .N548AS
2019-05-19T10:38:00-0700 2019-05-19T10:39:48-0700 2375 47.495 -122.308 8.7 59 1 130.025 .N548AS
2019-05-19T10:38:00-0700 2019-05-19T10:39:48-0700 2172 47.4896 -122.3078 9.2 66 1 130.025 .N548AS
2019-05-19T10:38:00-0700 2019-05-19T10:39:48-0700 2005 47.4841 -122.3078 9.5 90 1 130.025 .N548AS
2019-05-19T10:38:00-0700 2019-05-19T10:39:41-0700 1758 47.4738 -122.3077 10.2 313 0 130.025 .N548AS
2019-05-19T10:38:00-0700 2019-05-19T10:39:41-0700 1622 47.469 -122.3077 10.7 54 1 130.025 .N548AS
2019-05-19T10:38:00-0700 2019-05-19T10:39:23-0700 1538 47.4667 -122.3077 11.2 131 1 130.025 .N548AS
2019-05-19T10:38:00-0700 2019-05-19T10:39:23-0700 1280 47.4621 -122.3077 12.5 69 2 130.025 .N548AS
2019-05-19T10:56:00-0700 2019-05-19T10:57:10-0700 8872 47.5915 -122.1794 -2.5 113 14 130.025 .N611AS
2019-05-19T11:00:00-0700 2019-05-19T11:01:34-0700 16745 47.643 -122.8759 -17.7 103 21 130.025 .N546AS
2019-05-19T11:00:00-0700 2019-05-19T11:01:34-0700 15790 47.6387 -122.819 -15.5 95 17 130.025 .N546AS
2019-05-19T11:00:00-0700 2019-05-19T11:01:15-0700 3559 47.5261 -122.3095 8.2 154 5 130.025 .N556AS
2019-05-19T11:00:00-0700 2019-05-19T11:01:15-0700 3324 47.5201 -122.3094 7.7 183 3 130.025 .N556AS
2019-05-19T11:00:00-0700 2019-05-19T11:01:15-0700 3039 47.5141 -122.3094 8.0 54 0 130.025 .N556AS
2019-05-19T11:00:00-0700 2019-05-19T11:01:08-0700 2645 47.5024 -122.309 8.2 163 0 130.025 .N556AS
2019-05-19T11:00:00-0700 2019-05-19T11:01:08-0700 2484 47.4968 -122.3089 8.5 133 2 130.025 .N556AS
2019-05-19T10:57:00-0700 2019-05-19T10:57:56-0700 8546 47.6128 -122.4079 -1.5 116 17 130.025 .N546AS
2019-05-19T10:57:00-0700 2019-05-19T10:57:56-0700 7435 47.6054 -122.3691 0.5 118 19 130.025 .N546AS
2019-05-19T10:56:00-0700 2019-05-19T10:57:10-0700 10172 47.55 -122.1405 -4.7 129 15 130.025 .N611AS
2019-05-19T10:56:00-0700 2019-05-19T10:57:10-0700 9200 47.573 -122.1547 -3.0 139 12 130.025 .N611AS
2019-05-19T10:38:00-0700 2019-05-19T10:39:23-0700 893 47.4575 -122.3078 13.5 316 1 130.025 .N548AS
2019-05-19T10:56:00-0700 2019-05-19T10:57:56-0700 6448 47.5867 -122.342 2.2 109 14 130.025 .N546AS
2019-05-19T10:56:00-0700 2019-05-19T10:57:50-0700 4174 47.5428 -122.3094 7.0 153 5 130.025 .N546AS
2019-05-19T10:56:00-0700 2019-05-19T10:56:46-0700 3749 47.5294 -122.3083 7.7 132 6 130.025 .N546AS
2019-05-19T10:56:00-0700 2019-05-19T10:56:46-0700 3558 47.5225 -122.308 8.0 120 4 130.025 .N546AS
2019-05-19T10:55:00-0700 2019-05-19T10:57:50-0700 3461 47.5191 -122.3078 8.2 116 3 130.025 .N546AS
2019-05-19T10:55:00-0700 2019-05-19T10:56:46-0700 3363 47.5158 -122.3078 8.5 112 3 130.025 .N546AS
2019-05-19T10:55:00-0700 2019-05-19T10:56:12-0700 2093 47.4734 -122.3078 9.7 167 3 130.025 .N546AS
2019-05-19T10:55:00-0700 2019-05-19T10:56:12-0700 1872 47.4688 -122.3078 10.5 291 1 130.025 .N546AS
2019-05-19T10:55:00-0700 2019-05-19T10:55:18-0700 1734 47.4666 -122.3078 11.0 352 1 130.025 .N546AS
2019-05-19T10:54:00-0700 2019-05-19T10:55:22-0700 4939 47.5543 -122.3104 5.0 (missing) (missing) 130.025 .N611AS
2019-05-19T10:54:00-0700 2019-05-19T10:55:18-0700 1431 47.4621 -122.3077 12.0 75 1 130.025 .N546AS